Time;durP1;ratioP1;P1;durP2;ratioP2;P2;SDS_P1;SDS_P2;PMS_P1;PMS_P2;Temp;Humidity;BMP_temperature;BMP_pressure;BME280_temperature;BME280_humidity;BME280_pressure;Samples;Min_cycle;Max_cycle;Signal;HPM_P1;HPM_P2
2022/07/04 00:00:24;;;;;;;10.00;5.05;;;14.60;99.90;;;;;;5018238;28;20045;-70
2022/07/04 00:02:50;;;;;;;6.85;4.28;;;14.50;99.90;;;;;;5020565;28;20038;-70
2022/07/04 00:05:17;;;;;;;10.73;4.35;;;14.50;99.90;;;;;;5016396;28;20511;-70
2022/07/04 00:07:48;;;;;;;5.15;3.83;;;14.50;99.90;;;;;;5016700;28;20417;-70
2022/07/04 00:10:16;;;;;;;7.85;4.45;;;14.50;99.90;;;;;;5020046;28;20045;-70
2022/07/04 00:12:43;;;;;;;8.90;4.35;;;14.50;99.90;;;;;;5017445;28;20317;-71
2022/07/04 00:15:10;;;;;;;9.18;4.35;;;14.60;99.90;;;;;;5009692;28;20046;-70
2022/07/04 00:17:36;;;;;;;6.60;4.22;;;14.60;99.90;;;;;;5022128;28;20120;-70
2022/07/04 00:20:03;;;;;;;7.70;4.07;;;14.60;99.90;;;;;;5010692;28;20084;-70
2022/07/04 00:22:29;;;;;;;7.10;4.75;;;14.60;99.90;;;;;;5019164;28;20037;-70
2022/07/04 00:24:55;;;;;;;6.80;4.47;;;14.60;99.90;;;;;;5007018;28;20060;-70
2022/07/04 00:27:21;;;;;;;7.45;4.50;;;14.60;99.90;;;;;;5017252;28;20063;-70
2022/07/04 00:29:46;;;;;;;5.90;4.15;;;14.60;99.90;;;;;;5015738;28;20078;-70
2022/07/04 00:32:12;;;;;;;8.18;4.03;;;14.60;99.90;;;;;;5010667;28;20088;-70
2022/07/04 00:34:38;;;;;;;6.88;4.20;;;14.60;99.90;;;;;;5007869;28;20473;-70
2022/07/04 00:37:04;;;;;;;10.48;4.50;;;14.50;99.90;;;;;;5019264;28;20045;-71
2022/07/04 00:39:29;;;;;;;11.02;4.30;;;14.50;99.90;;;;;;5009310;28;20049;-71
2022/07/04 00:41:55;;;;;;;7.25;4.32;;;14.50;99.90;;;;;;5012619;28;20042;-71
2022/07/04 00:44:21;;;;;;;7.28;4.80;;;14.40;99.90;;;;;;5010512;28;20489;-71
2022/07/04 00:46:47;;;;;;;5.00;3.88;;;14.40;99.90;;;;;;5010828;28;20597;-70
2022/07/04 00:49:15;;;;;;;9.10;4.80;;;14.40;99.90;;;;;;5006258;28;20405;-70
2022/07/04 00:51:42;;;;;;;7.57;4.40;;;14.40;99.90;;;;;;5020907;28;20042;-71
2022/07/04 00:54:10;;;;;;;6.50;4.45;;;14.40;99.90;;;;;;5007429;28;20053;-70
2022/07/04 00:56:37;;;;;;;8.20;4.68;;;14.40;99.90;;;;;;5015912;28;20046;-70
2022/07/04 00:59:03;;;;;;;7.32;4.32;;;14.30;99.90;;;;;;5009630;28;20038;-71
2022/07/04 01:01:29;;;;;;;9.38;4.63;;;14.30;99.90;;;;;;5007769;28;20044;-70
2022/07/04 01:03:56;;;;;;;6.20;4.13;;;14.20;99.90;;;;;;5012811;28;20045;-71
2022/07/04 01:06:22;;;;;;;5.45;4.20;;;14.20;99.90;;;;;;5014680;28;20049;-71
2022/07/04 01:08:48;;;;;;;6.97;4.57;;;14.20;99.90;;;;;;5010803;28;20490;-71
2022/07/04 01:11:14;;;;;;;6.28;4.47;;;14.20;99.90;;;;;;5015335;28;20049;-71
2022/07/04 01:13:41;;;;;;;7.68;5.32;;;14.20;99.90;;;;;;5014009;28;20034;-71
2022/07/04 01:16:08;;;;;;;9.20;5.03;;;14.20;99.90;;;;;;5009142;28;20096;-71
2022/07/04 01:18:34;;;;;;;7.93;4.82;;;14.20;99.90;;;;;;5014010;28;20057;-71
2022/07/04 01:21:00;;;;;;;7.47;4.57;;;14.20;99.90;;;;;;5007588;28;20401;-71
2022/07/04 01:23:26;;;;;;;7.95;5.35;;;14.20;99.90;;;;;;5015646;28;20049;-71
2022/07/04 01:25:52;;;;;;;9.02;5.00;;;14.20;99.90;;;;;;5010464;28;20041;-71
2022/07/04 01:28:21;;;;;;;7.28;4.63;;;14.20;99.90;;;;;;5009471;28;20474;-71
2022/07/04 01:30:48;;;;;;;7.35;4.35;;;14.20;99.90;;;;;;5008641;28;20408;-71
2022/07/04 01:33:13;;;;;;;5.53;4.20;;;14.20;99.90;;;;;;5011043;28;20510;-71
2022/07/04 01:35:39;;;;;;;10.70;4.70;;;14.20;99.90;;;;;;5019459;28;20054;-71
2022/07/04 01:38:05;;;;;;;7.57;4.53;;;14.20;99.90;;;;;;5018646;28;20050;-71
2022/07/04 01:40:31;;;;;;;8.18;4.45;;;14.20;99.90;;;;;;5014757;28;20038;-71
2022/07/04 01:42:58;;;;;;;6.38;4.47;;;14.10;99.90;;;;;;5014146;28;20446;-71
2022/07/04 01:45:24;;;;;;;12.00;4.43;;;14.20;99.90;;;;;;5009908;28;20049;-71
2022/07/04 01:47:50;;;;;;;8.40;5.45;;;14.20;99.90;;;;;;5011665;28;20041;-71
2022/07/04 01:50:16;;;;;;;6.45;4.10;;;14.20;99.90;;;;;;5008080;28;20484;-71
2022/07/04 01:52:42;;;;;;;14.23;4.63;;;14.10;99.90;;;;;;5013258;28;20045;-71
2022/07/04 01:55:09;;;;;;;13.65;5.43;;;14.10;99.90;;;;;;5007645;28;20053;-71
2022/07/04 01:57:35;;;;;;;7.45;3.97;;;14.10;99.90;;;;;;5009008;28;20129;-71
2022/07/04 02:02:45;;;;;;;6.35;4.10;;;14.10;99.90;;;;;;5011612;28;20041;-71
2022/07/04 02:05:11;;;;;;;8.05;4.22;;;14.10;99.90;;;;;;5010423;28;20092;-70
2022/07/04 02:07:37;;;;;;;8.43;4.40;;;14.10;99.90;;;;;;5021234;28;20096;-71
2022/07/04 02:10:03;;;;;;;8.68;3.83;;;14.10;99.90;;;;;;5014659;28;20049;-70
2022/07/04 02:15:13;;;;;;;8.77;4.30;;;14.10;99.90;;;;;;5016411;28;20070;-71
2022/07/04 02:17:38;;;;;;;7.90;4.18;;;14.10;99.90;;;;;;5009474;28;20108;-71
2022/07/04 02:20:06;;;;;;;7.95;4.43;;;14.10;99.90;;;;;;5011920;28;20052;-70
2022/07/04 02:22:32;;;;;;;6.63;4.13;;;14.10;99.90;;;;;;5014037;28;20046;-72
2022/07/04 02:24:57;;;;;;;7.70;4.30;;;14.10;99.90;;;;;;5011067;28;20042;-69
2022/07/04 02:27:23;;;;;;;8.55;4.07;;;14.10;99.90;;;;;;5014147;28;20037;-70
2022/07/04 02:29:49;;;;;;;6.75;3.70;;;14.00;99.90;;;;;;5011271;28;20515;-70
2022/07/04 02:32:15;;;;;;;8.02;4.10;;;14.10;99.90;;;;;;5008647;28;20056;-70
2022/07/04 02:34:41;;;;;;;6.55;3.65;;;14.00;99.90;;;;;;5007971;28;20042;-70
2022/07/04 02:37:07;;;;;;;8.45;4.50;;;14.00;99.90;;;;;;5018291;28;20068;-71
2022/07/04 02:39:32;;;;;;;8.23;4.13;;;14.00;99.90;;;;;;5011130;28;20521;-70
2022/07/04 02:41:58;;;;;;;5.55;3.65;;;14.00;99.90;;;;;;5006306;28;20497;-70
2022/07/04 02:44:24;;;;;;;8.20;4.20;;;13.90;99.90;;;;;;5012777;28;20445;-72
2022/07/04 02:46:49;;;;;;;7.40;3.97;;;13.90;99.90;;;;;;5007753;28;20127;-70
2022/07/04 02:49:15;;;;;;;6.75;3.92;;;13.90;99.90;;;;;;5016086;28;20141;-70
2022/07/04 02:51:41;;;;;;;9.80;3.90;;;13.90;99.90;;;;;;5009342;28;20073;-70
2022/07/04 02:54:07;;;;;;;9.10;3.55;;;13.90;99.90;;;;;;5005538;28;20041;-70
2022/07/04 02:56:33;;;;;;;11.77;4.25;;;13.80;99.90;;;;;;5007517;28;20096;-71
2022/07/04 02:58:59;;;;;;;10.00;3.95;;;13.90;99.90;;;;;;5014089;28;20103;-71
2022/07/04 03:01:24;;;;;;;6.03;4.20;;;13.80;99.90;;;;;;5007954;28;20068;-70
2022/07/04 03:03:50;;;;;;;8.02;4.20;;;13.80;99.90;;;;;;5017783;28;20064;-70
2022/07/04 03:06:17;;;;;;;8.77;4.30;;;13.80;99.90;;;;;;5006870;28;20050;-70
2022/07/04 03:08:43;;;;;;;11.32;4.43;;;13.80;99.90;;;;;;5015910;28;20058;-70
2022/07/04 03:11:09;;;;;;;7.82;4.60;;;13.90;99.90;;;;;;5012259;28;20094;-70
2022/07/04 03:13:36;;;;;;;9.05;4.10;;;13.90;99.90;;;;;;5017051;28;20045;-71
2022/07/04 03:16:02;;;;;;;9.43;4.88;;;13.90;99.90;;;;;;5008469;28;20089;-71
2022/07/04 03:18:27;;;;;;;11.98;4.32;;;14.00;99.90;;;;;;5009613;28;20038;-70
2022/07/04 03:20:53;;;;;;;8.10;4.80;;;14.00;99.90;;;;;;5013215;28;20049;-70
2022/07/04 03:23:19;;;;;;;10.27;5.07;;;14.00;99.90;;;;;;5006234;28;20042;-71
2022/07/04 03:25:44;;;;;;;9.13;4.47;;;14.00;99.90;;;;;;5016407;28;20038;-71
2022/07/04 03:28:10;;;;;;;5.93;4.60;;;14.00;99.90;;;;;;5013687;28;20128;-71
2022/07/04 03:30:36;;;;;;;9.32;4.78;;;14.00;99.90;;;;;;5023069;28;20069;-70
2022/07/04 03:33:02;;;;;;;11.63;5.55;;;13.90;99.90;;;;;;5013988;28;20129;-70
2022/07/04 03:35:28;;;;;;;12.23;4.97;;;14.00;99.90;;;;;;5010419;28;20063;-70
2022/07/04 03:37:53;;;;;;;9.32;6.05;;;14.00;99.90;;;;;;5017042;28;20554;-70
2022/07/04 03:40:20;;;;;;;9.57;5.10;;;13.90;99.90;;;;;;5018686;28;20053;-70
2022/07/04 03:42:46;;;;;;;7.93;5.25;;;13.90;99.90;;;;;;5010271;28;20900;-71
2022/07/04 03:45:12;;;;;;;9.95;5.15;;;13.90;99.90;;;;;;5012815;28;20505;-70
2022/07/04 03:47:38;;;;;;;9.95;4.80;;;13.90;99.90;;;;;;5015972;28;20053;-71
2022/07/04 03:50:04;;;;;;;11.10;5.25;;;13.90;99.90;;;;;;5019483;28;20092;-70
2022/07/04 03:52:29;;;;;;;10.60;4.75;;;14.00;99.90;;;;;;5017580;28;20511;-70
2022/07/04 03:54:55;;;;;;;8.30;5.30;;;14.00;99.90;;;;;;5016230;28;20084;-70
2022/07/04 03:57:21;;;;;;;7.43;5.07;;;14.00;99.90;;;;;;5015559;28;20112;-71
2022/07/04 03:59:47;;;;;;;7.70;4.80;;;14.00;99.90;;;;;;5026798;28;20132;-70
2022/07/04 04:02:13;;;;;;;9.02;5.15;;;14.10;99.90;;;;;;5009943;28;20033;-70
2022/07/04 04:07:22;;;;;;;10.20;4.88;;;14.20;99.90;;;;;;5018265;28;20571;-70
2022/07/04 04:09:48;;;;;;;8.73;5.38;;;14.30;99.90;;;;;;5024086;28;20045;-70
2022/07/04 04:12:14;;;;;;;9.35;4.60;;;14.50;99.90;;;;;;5019039;28;20046;-71
2022/07/04 04:14:40;;;;;;;8.23;4.63;;;14.90;99.90;;;;;;5011763;28;20115;-70
2022/07/04 04:17:06;;;;;;;9.90;4.90;;;15.30;99.90;;;;;;5017528;28;20049;-70
2022/07/04 04:19:31;;;;;;;8.48;4.32;;;15.80;99.90;;;;;;5019789;28;20093;-70
2022/07/04 04:21:57;;;;;;;7.70;4.35;;;16.20;99.90;;;;;;5013531;28;20132;-70
2022/07/04 04:24:23;;;;;;;10.43;4.63;;;16.60;99.90;;;;;;5015562;28;20061;-70
2022/07/04 04:26:48;;;;;;;7.25;4.10;;;17.00;99.90;;;;;;5010817;28;20046;-70
2022/07/04 04:29:14;;;;;;;6.68;3.63;;;17.10;99.90;;;;;;5015604;28;20276;-70
2022/07/04 04:31:40;;;;;;;13.20;4.07;;;17.00;99.90;;;;;;5016335;28;20041;-71
2022/07/04 04:34:06;;;;;;;8.43;3.50;;;16.90;99.90;;;;;;5014301;28;20049;-70
2022/07/04 04:36:32;;;;;;;9.48;3.40;;;16.60;99.90;;;;;;5025226;28;20545;-70
2022/07/04 04:38:57;;;;;;;10.32;3.83;;;16.40;99.90;;;;;;5020976;28;20042;-70
2022/07/04 04:41:23;;;;;;;8.75;3.17;;;16.30;99.90;;;;;;5013802;28;20112;-69
2022/07/04 04:43:49;;;;;;;7.55;3.42;;;16.10;99.90;;;;;;5015245;28;20137;-68
2022/07/04 04:46:14;;;;;;;7.35;3.55;;;15.90;99.90;;;;;;5018450;28;20064;-69
2022/07/04 04:48:40;;;;;;;7.50;3.60;;;15.80;99.90;;;;;;5011424;28;20056;-69
2022/07/04 04:51:06;;;;;;;6.82;3.28;;;15.80;99.90;;;;;;5007510;28;20134;-69
2022/07/04 04:53:31;;;;;;;7.35;3.20;;;15.70;99.90;;;;;;5017285;28;20048;-70
2022/07/04 04:55:57;;;;;;;6.97;3.00;;;15.70;99.90;;;;;;5012836;28;20465;-70
2022/07/04 04:58:26;;;;;;;8.40;3.10;;;15.80;99.90;;;;;;5018045;28;20049;-70
2022/07/04 05:00:55;;;;;;;6.60;3.40;;;15.80;99.90;;;;;;5017526;28;20507;-70
2022/07/04 05:03:20;;;;;;;8.60;3.65;;;15.90;99.90;;;;;;5022913;28;20049;-71
2022/07/04 05:05:46;;;;;;;6.55;2.63;;;16.00;99.90;;;;;;5012497;28;20522;-70
2022/07/04 05:08:13;;;;;;;6.80;3.35;;;16.10;99.90;;;;;;5007225;28;20410;-70
2022/07/04 05:10:39;;;;;;;7.18;3.05;;;16.20;99.90;;;;;;5013753;28;20083;-71
2022/07/04 05:13:05;;;;;;;8.00;3.38;;;16.30;99.90;;;;;;5006118;28;20061;-70
2022/07/04 05:15:31;;;;;;;5.45;2.78;;;16.30;99.90;;;;;;5010722;28;20125;-70
2022/07/04 05:17:57;;;;;;;9.05;2.92;;;16.40;99.90;;;;;;5019706;28;20033;-70
2022/07/04 05:20:23;;;;;;;7.97;3.53;;;16.50;99.90;;;;;;5019920;28;20042;-70
2022/07/04 05:22:48;;;;;;;7.70;3.30;;;16.50;99.90;;;;;;5010899;28;20111;-69
2022/07/04 05:25:14;;;;;;;8.27;3.13;;;16.60;99.90;;;;;;5015725;28;20033;-70
2022/07/04 05:27:40;;;;;;;8.07;3.03;;;16.70;99.90;;;;;;5011000;28;20042;-69
2022/07/04 05:30:07;;;;;;;10.40;3.08;;;16.90;99.90;;;;;;5012224;28;20049;-70
2022/07/04 05:32:33;;;;;;;6.22;3.22;;;17.00;99.90;;;;;;5006709;28;20053;-70
2022/07/04 05:34:59;;;;;;;9.57;3.20;;;17.10;99.90;;;;;;5011503;28;20046;-69
2022/07/04 05:37:25;;;;;;;12.02;3.70;;;17.20;99.90;;;;;;5008277;28;20501;-70
2022/07/04 05:39:50;;;;;;;8.75;3.10;;;17.40;99.90;;;;;;5008245;28;20045;-71
2022/07/04 05:42:17;;;;;;;8.73;3.08;;;17.60;99.90;;;;;;5002252;28;20049;-70
2022/07/04 05:44:42;;;;;;;8.48;3.33;;;17.70;99.90;;;;;;5010563;28;20103;-69
2022/07/04 05:47:08;;;;;;;11.70;3.33;;;17.80;99.90;;;;;;5009182;28;20038;-70
2022/07/04 05:49:34;;;;;;;9.93;3.17;;;17.80;99.90;;;;;;5013108;28;20483;-70
2022/07/04 05:51:59;;;;;;;10.32;3.10;;;17.80;99.90;;;;;;5005842;28;20485;-70
2022/07/04 05:54:25;;;;;;;8.75;3.10;;;17.70;99.90;;;;;;5007466;28;20041;-70
2022/07/04 05:56:51;;;;;;;7.88;3.30;;;17.70;99.90;;;;;;5012041;28;20136;-70
2022/07/04 05:59:17;;;;;;;6.88;3.15;;;17.70;99.90;;;;;;5013114;28;20046;-71
2022/07/04 06:01:42;;;;;;;10.65;3.70;;;17.80;99.90;;;;;;5010879;28;20045;-70
2022/07/04 06:04:08;;;;;;;7.05;3.30;;;17.80;99.90;;;;;;5006768;28;20108;-69
2022/07/04 06:06:34;;;;;;;12.77;4.03;;;17.90;99.90;;;;;;5003964;28;20536;-70
2022/07/04 06:09:01;;;;;;;8.82;3.78;;;18.00;99.90;;;;;;5011193;28;21805;-70
2022/07/04 06:11:26;;;;;;;6.45;3.65;;;18.20;99.90;;;;;;5012153;28;20048;-69
2022/07/04 06:13:52;;;;;;;9.85;3.95;;;18.30;99.90;;;;;;5008837;28;20433;-70
2022/07/04 06:16:18;;;;;;;5.40;3.03;;;18.40;99.90;;;;;;5010080;28;20413;-70
2022/07/04 06:18:43;;;;;;;5.63;2.92;;;18.60;99.90;;;;;;5012522;28;20604;-70
2022/07/04 06:21:10;;;;;;;8.02;3.28;;;18.80;99.90;;;;;;5008569;28;20044;-69
2022/07/04 06:23:35;;;;;;;6.20;3.17;;;18.80;99.90;;;;;;5009165;28;20112;-70
2022/07/04 06:26:01;;;;;;;7.57;3.00;;;18.80;99.90;;;;;;5006879;28;20501;-71
2022/07/04 06:28:27;;;;;;;6.68;2.75;;;18.80;99.90;;;;;;5018665;28;20471;-70
2022/07/04 06:30:53;;;;;;;5.53;2.30;;;18.90;99.90;;;;;;5014702;28;20042;-70
2022/07/04 06:33:19;;;;;;;4.00;2.20;;;18.90;99.90;;;;;;5001433;28;20120;-69
2022/07/04 06:35:45;;;;;;;5.38;1.70;;;18.80;99.90;;;;;;5013882;28;20095;-69
2022/07/04 06:38:13;;;;;;;4.90;1.80;;;18.70;99.90;;;;;;5008403;28;20038;-71
2022/07/04 06:40:39;;;;;;;6.47;2.30;;;18.60;99.90;;;;;;5015282;28;20068;-70
2022/07/04 06:43:05;;;;;;;4.93;2.10;;;18.50;99.90;;;;;;5021035;28;20042;-69
2022/07/04 06:45:31;;;;;;;4.90;1.67;;;18.60;99.90;;;;;;5015152;28;20041;-70
2022/07/04 06:47:57;;;;;;;4.50;1.80;;;18.80;99.90;;;;;;5027733;28;20056;-70
2022/07/04 06:50:23;;;;;;;4.22;1.50;;;18.90;99.90;;;;;;5016431;28;20401;-71
2022/07/04 06:52:48;;;;;;;7.18;2.40;;;19.00;99.90;;;;;;5005859;28;21087;-70
2022/07/04 06:55:14;;;;;;;3.20;1.25;;;19.10;99.90;;;;;;5013446;28;20069;-70
2022/07/04 06:57:40;;;;;;;6.57;1.40;;;19.20;99.90;;;;;;5011604;28;20456;-70
2022/07/04 07:00:07;;;;;;;3.40;1.52;;;19.40;99.90;;;;;;5008373;28;20053;-70
2022/07/04 07:02:37;;;;;;;3.55;1.23;;;19.60;99.90;;;;;;5003417;28;20085;-70
2022/07/04 07:05:04;;;;;;;3.75;1.17;;;19.70;99.90;;;;;;5008922;28;20042;-71
2022/07/04 07:07:30;;;;;;;3.03;1.40;;;19.60;99.90;;;;;;5013995;28;20053;-71
2022/07/04 07:09:56;;;;;;;3.65;1.58;;;19.50;99.90;;;;;;5016095;28;20077;-71
2022/07/04 07:12:23;;;;;;;5.32;1.27;;;19.40;99.90;;;;;;5014203;28;20544;-70
2022/07/04 07:14:49;;;;;;;4.35;1.10;;;19.40;99.90;;;;;;5013046;28;20093;-71
2022/07/04 07:17:15;;;;;;;3.40;1.40;;;19.40;99.90;;;;;;5015306;28;20050;-72
2022/07/04 07:19:45;;;;;;;2.40;1.20;;;19.40;99.90;;;;;;5009311;28;20030;-71
2022/07/04 07:22:12;;;;;;;2.88;0.95;;;19.50;99.90;;;;;;5011349;28;20172;-71
2022/07/04 07:24:38;;;;;;;4.82;1.13;;;19.50;99.90;;;;;;5009813;28;20619;-71
2022/07/04 07:27:04;;;;;;;5.65;1.25;;;19.50;99.90;;;;;;5012952;28;20041;-71
2022/07/04 07:29:30;;;;;;;2.92;1.60;;;19.60;99.90;;;;;;5008819;28;20100;-72
2022/07/04 07:31:56;;;;;;;3.45;1.10;;;19.80;99.90;;;;;;5013808;28;20053;-71
2022/07/04 07:34:22;;;;;;;5.10;1.38;;;19.80;99.90;;;;;;5004623;28;20061;-72
2022/07/04 07:36:48;;;;;;;2.75;1.13;;;20.00;99.90;;;;;;5016797;28;20049;-72
2022/07/04 07:39:13;;;;;;;3.78;1.33;;;20.10;99.90;;;;;;5005062;28;20411;-71
2022/07/04 07:41:39;;;;;;;3.63;1.52;;;20.10;99.90;;;;;;5010245;28;20064;-73
2022/07/04 07:44:04;;;;;;;3.28;1.30;;;20.10;99.90;;;;;;5011309;28;20038;-72
2022/07/04 07:46:30;;;;;;;3.75;1.20;;;20.00;99.90;;;;;;5007666;28;20041;-73
2022/07/04 07:48:56;;;;;;;3.83;1.35;;;20.00;99.90;;;;;;5010249;28;20046;-74
2022/07/04 07:51:22;;;;;;;3.05;1.33;;;19.90;99.90;;;;;;5013917;28;20208;-74
2022/07/04 07:53:47;;;;;;;6.10;1.23;;;19.90;99.90;;;;;;5012486;28;20238;-73
2022/07/04 07:56:13;;;;;;;4.60;1.23;;;19.90;99.90;;;;;;5010643;28;20199;-74
2022/07/04 07:58:39;;;;;;;4.72;1.20;;;19.90;99.90;;;;;;5015430;28;20045;-73
2022/07/04 08:01:04;;;;;;;5.03;1.15;;;20.00;99.90;;;;;;5014207;28;20034;-73
2022/07/04 08:06:22;;;;;;;5.03;1.83;;;20.30;99.90;;;;;;4998926;28;20191;-73
2022/07/04 08:08:48;;;;;;;3.50;1.40;;;20.60;99.90;;;;;;5011376;28;21343;-72
2022/07/04 08:11:13;;;;;;;5.38;1.13;;;20.80;99.90;;;;;;5016833;28;20046;-75
2022/07/04 08:13:39;;;;;;;5.30;1.30;;;20.90;99.90;;;;;;5017173;28;20548;-75
2022/07/04 08:16:06;;;;;;;6.45;1.75;;;20.90;99.90;;;;;;5020040;28;20116;-73
2022/07/04 08:18:32;;;;;;;5.28;1.40;;;21.00;99.90;;;;;;5014447;28;20508;-73
2022/07/04 08:20:59;;;;;;;4.63;1.50;;;21.10;99.90;;;;;;5013766;28;20041;-75
2022/07/04 08:23:26;;;;;;;3.47;1.10;;;21.20;99.90;;;;;;5014085;28;20045;-75
2022/07/04 08:25:52;;;;;;;4.05;1.30;;;21.20;99.90;;;;;;5013792;28;20050;-74
2022/07/04 08:28:17;;;;;;;2.85;1.40;;;21.30;99.90;;;;;;5015163;28;20037;-74
2022/07/04 08:30:43;;;;;;;6.15;1.38;;;21.40;99.90;;;;;;5019864;28;20512;-74
2022/07/04 08:33:09;;;;;;;6.30;1.70;;;21.70;99.90;;;;;;5010860;28;20053;-73
2022/07/04 08:35:35;;;;;;;2.88;1.25;;;21.60;99.90;;;;;;5013616;28;20176;-74
2022/07/04 08:38:00;;;;;;;6.53;1.52;;;21.60;99.90;;;;;;5018971;28;20520;-73
2022/07/04 08:40:27;;;;;;;4.30;1.63;;;21.70;99.90;;;;;;5022679;28;20500;-74
2022/07/04 08:42:54;;;;;;;4.55;1.30;;;21.70;99.90;;;;;;5025320;28;20508;-73
2022/07/04 08:45:32;;;;;;;6.20;1.30;;;21.80;99.90;;;;;;5014428;28;20505;-73
2022/07/04 08:48:07;;;;;;;3.80;1.60;;;22.00;99.90;;;;;;5018580;28;20029;-73
2022/07/04 08:50:46;;;;;;;4.80;1.60;;;22.00;99.90;;;;;;5016213;28;20644;-73
2022/07/04 08:53:20;;;;;;;3.75;1.23;;;21.80;99.90;;;;;;5014913;28;20501;-74
2022/07/04 08:58:33;;;;;;;4.93;1.60;;;21.20;99.90;;;;;;5015720;28;20045;-73
2022/07/04 09:01:02;;;;;;;7.68;1.83;;;20.80;99.90;;;;;;5019051;28;20045;-73
2022/07/04 09:03:29;;;;;;;4.47;1.33;;;20.50;99.90;;;;;;5010860;28;20081;-74
2022/07/04 09:05:55;;;;;;;5.78;1.58;;;20.50;99.90;;;;;;5015321;28;20057;-74
2022/07/04 09:08:21;;;;;;;5.57;1.70;;;20.70;99.90;;;;;;5008992;28;20116;-74
2022/07/04 09:10:48;;;;;;;4.47;1.80;;;21.00;99.90;;;;;;5012785;28;20092;-75
2022/07/04 09:13:14;;;;;;;5.03;1.88;;;21.40;99.90;;;;;;5013427;28;20477;-74
2022/07/04 09:15:48;;;;;;;5.55;1.38;;;21.70;99.90;;;;;;5014308;28;20445;-73
2022/07/04 09:18:32;;;;;;;3.88;1.35;;;21.80;99.90;;;;;;5009997;28;20476;-74
2022/07/04 09:21:00;;;;;;;4.03;1.70;;;22.00;99.90;;;;;;5021067;28;20052;-75
2022/07/04 09:23:29;;;;;;;3.40;1.30;;;21.90;99.90;;;;;;5018215;28;20038;-74
2022/07/04 09:26:20;;;;;;;2.88;1.17;;;21.90;99.90;;;;;;5010818;28;20079;-74
2022/07/04 09:28:58;;;;;;;4.03;1.25;;;22.20;99.90;;;;;;5014730;28;20045;-74
2022/07/04 09:31:28;;;;;;;4.25;2.00;;;22.20;99.90;;;;;;5019794;28;20064;-74
2022/07/04 09:33:54;;;;;;;4.13;1.38;;;22.00;99.90;;;;;;5017655;28;20041;-74
2022/07/04 09:36:25;;;;;;;4.05;1.20;;;21.90;99.90;;;;;;5013502;28;20111;-74
2022/07/04 09:39:06;;;;;;;5.22;1.60;;;21.60;99.90;;;;;;5014899;28;20037;-75
2022/07/04 09:41:59;;;;;;;4.78;1.60;;;21.50;99.90;;;;;;5013347;28;20524;-75
2022/07/04 09:44:45;;;;;;;6.68;1.80;;;21.70;99.90;;;;;;5011559;28;20042;-75
2022/07/04 09:47:27;;;;;;;6.80;1.95;;;21.70;99.90;;;;;;5012342;28;20053;-75
2022/07/04 09:50:16;;;;;;;4.50;1.60;;;21.80;99.90;;;;;;5005268;28;20653;-75
2022/07/04 09:52:53;;;;;;;2.38;1.13;;;22.00;99.90;;;;;;5020352;28;20072;-73
2022/07/04 09:55:33;;;;;;;3.95;1.98;;;22.10;99.90;;;;;;5004187;28;20045;-73
2022/07/04 09:58:04;;;;;;;6.18;2.60;;;22.30;99.90;;;;;;5008455;28;20124;-73
2022/07/04 10:00:36;;;;;;;3.38;1.27;;;22.50;99.90;;;;;;5014822;28;20044;-74
2022/07/04 10:03:16;;;;;;;3.50;1.02;;;22.60;99.90;;;;;;5010657;28;20080;-73
2022/07/04 10:05:43;;;;;;;4.35;1.48;;;22.60;99.90;;;;;;5011175;28;20080;-74
2022/07/04 10:08:08;;;;;;;2.75;1.13;;;22.40;99.90;;;;;;5013651;28;20037;-73
2022/07/04 10:10:39;;;;;;;2.70;1.00;;;22.50;99.90;;;;;;5020835;28;20243;-73
2022/07/04 10:13:10;;;;;;;4.30;1.00;;;22.60;99.90;;;;;;5009208;28;20567;-73
2022/07/04 10:15:40;;;;;;;2.88;1.02;;;22.70;99.90;;;;;;5012038;28;20153;-73
2022/07/04 10:18:07;;;;;;;4.60;1.25;;;22.80;99.80;;;;;;5012883;28;20091;-73
2022/07/04 10:20:33;;;;;;;4.38;1.20;;;22.90;99.90;;;;;;5020825;28;20470;-73
2022/07/04 10:22:59;;;;;;;3.85;1.30;;;23.00;99.90;;;;;;5025281;28;20080;-73
2022/07/04 10:25:25;;;;;;;4.18;1.20;;;23.10;99.90;;;;;;5013922;28;20766;-73
2022/07/04 10:27:52;;;;;;;3.47;1.25;;;23.10;99.80;;;;;;5028768;28;20056;-74
2022/07/04 10:30:24;;;;;;;3.88;1.10;;;23.10;99.90;;;;;;5006827;28;20865;-73
2022/07/04 10:32:51;;;;;;;4.20;1.30;;;23.00;99.20;;;;;;5012796;28;20120;-71
2022/07/04 10:35:17;;;;;;;3.45;1.20;;;22.70;99.80;;;;;;5015142;28;20053;-71
2022/07/04 10:38:04;;;;;;;4.53;1.25;;;22.40;99.00;;;;;;5012580;28;20404;-73
2022/07/04 10:40:52;;;;;;;4.32;1.15;;;22.60;99.60;;;;;;5012724;28;20050;-69
2022/07/04 10:43:42;;;;;;;3.13;1.00;;;22.60;99.40;;;;;;5013353;28;20501;-71
2022/07/04 10:46:13;;;;;;;6.90;1.30;;;22.60;99.50;;;;;;5007722;28;20703;-72
2022/07/04 10:48:59;;;;;;;7.03;1.67;;;22.70;99.10;;;;;;5014837;28;20049;-70
2022/07/04 10:51:41;;;;;;;2.65;1.10;;;22.70;98.90;;;;;;5020207;28;20421;-74
2022/07/04 10:54:13;;;;;;;3.63;1.08;;;22.80;99.10;;;;;;5009379;28;21391;-74
2022/07/04 10:56:42;;;;;;;1.85;0.85;;;22.90;99.90;;;;;;5022431;28;20140;-75
2022/07/04 10:59:12;;;;;;;2.25;1.17;;;22.80;97.20;;;;;;5011598;28;20227;-74
2022/07/04 11:01:38;;;;;;;2.95;1.02;;;22.90;97.40;;;;;;5009098;28;20251;-74
2022/07/04 11:04:05;;;;;;;3.92;1.10;;;23.00;97.50;;;;;;5016630;28;20203;-74
2022/07/04 11:06:33;;;;;;;3.13;1.20;;;23.00;96.40;;;;;;5018859;28;21123;-73
2022/07/04 11:09:19;;;;;;;2.97;1.30;;;23.00;97.10;;;;;;5020163;28;20065;-72
2022/07/04 11:11:56;;;;;;;1.90;0.98;;;22.60;96.80;;;;;;5013303;28;20524;-74
2022/07/04 11:14:38;;;;;;;2.95;1.25;;;22.40;96.20;;;;;;5010734;28;20566;-74
2022/07/04 11:17:06;;;;;;;2.97;1.05;;;22.40;97.00;;;;;;5008740;28;20041;-74
2022/07/04 11:19:32;;;;;;;3.60;1.02;;;22.30;95.40;;;;;;5015854;28;20049;-75
2022/07/04 11:21:58;;;;;;;2.97;1.00;;;22.30;96.00;;;;;;5015912;28;20080;-75
2022/07/04 11:24:25;;;;;;;3.42;0.90;;;22.40;96.60;;;;;;5012614;28;20029;-74
2022/07/04 11:26:51;;;;;;;1.95;0.88;;;22.40;95.80;;;;;;5017939;28;20041;-74
2022/07/04 11:29:17;;;;;;;4.57;1.20;;;22.40;95.50;;;;;;5017352;28;20048;-74
2022/07/04 11:31:49;;;;;;;3.67;0.80;;;22.40;95.30;;;;;;5014788;28;20539;-74
2022/07/04 11:34:15;;;;;;;2.47;0.80;;;22.40;95.30;;;;;;5008905;28;20520;-74
2022/07/04 11:36:43;;;;;;;3.15;1.10;;;22.40;94.50;;;;;;5016126;28;20056;-74
2022/07/04 11:39:12;;;;;;;2.65;1.00;;;22.40;95.20;;;;;;5007944;28;20049;-75
2022/07/04 11:47:22;;;;;;;;;;;22.40;94.10;;;;;;5013503;28;20052;-72
2022/07/04 11:49:55;;;;;;;2.53;1.10;;;22.30;94.50;;;;;;5022025;28;19921;-73
2022/07/04 11:52:24;;;;;;;2.03;0.90;;;22.40;95.30;;;;;;5010825;28;20045;-74
2022/07/04 11:54:51;;;;;;;8.30;1.23;;;22.40;94.90;;;;;;5013209;28;20037;-75
2022/07/04 11:57:23;;;;;;;4.63;1.30;;;22.30;95.10;;;;;;5026072;28;20050;-74
2022/07/04 12:00:00;;;;;;;3.53;0.83;;;22.20;95.90;;;;;;5019806;28;20042;-74
2022/07/04 12:02:28;;;;;;;1.67;0.82;;;22.20;95.80;;;;;;5017187;28;20296;-75
2022/07/04 12:04:55;;;;;;;3.13;0.75;;;22.30;95.70;;;;;;5023204;28;20482;-74
2022/07/04 12:07:24;;;;;;;1.98;0.85;;;22.30;96.00;;;;;;5014844;28;20046;-74
2022/07/04 12:09:49;;;;;;;2.38;0.80;;;22.20;95.20;;;;;;5007339;28;20454;-74
2022/07/04 12:12:17;;;;;;;2.40;0.90;;;22.20;94.90;;;;;;5012311;28;20297;-73
2022/07/04 12:15:03;;;;;;;3.47;1.13;;;22.10;95.30;;;;;;5011715;28;20076;-74
2022/07/04 12:17:31;;;;;;;5.97;1.20;;;22.00;95.60;;;;;;5009463;28;20410;-74
2022/07/04 12:19:58;;;;;;;3.83;0.73;;;22.00;96.00;;;;;;5011907;28;20448;-74
2022/07/04 12:22:36;;;;;;;2.90;1.05;;;22.00;96.30;;;;;;5011087;28;20046;-73
2022/07/04 12:25:05;;;;;;;4.03;1.25;;;22.20;96.10;;;;;;5013161;28;20057;-74
2022/07/04 12:27:31;;;;;;;5.20;0.82;;;22.30;96.10;;;;;;5012438;28;20095;-73
2022/07/04 12:29:58;;;;;;;1.65;0.60;;;22.30;94.90;;;;;;5017087;28;20058;-74
2022/07/04 12:32:43;;;;;;;3.15;0.90;;;22.30;94.20;;;;;;5013546;28;20037;-73
2022/07/04 12:35:30;;;;;;;3.53;0.85;;;22.30;95.00;;;;;;5009214;28;20064;-73
2022/07/04 12:38:06;;;;;;;1.90;0.80;;;22.30;95.20;;;;;;5009051;28;20077;-72
2022/07/04 12:40:32;;;;;;;2.88;0.93;;;22.20;95.70;;;;;;5008468;28;20261;-74
2022/07/04 12:42:59;;;;;;;2.55;0.73;;;22.30;96.10;;;;;;5006918;28;20107;-74
2022/07/04 12:45:26;;;;;;;8.60;0.90;;;22.20;95.50;;;;;;5009679;28;20070;-74
2022/07/04 12:47:53;;;;;;;3.20;0.75;;;22.10;95.20;;;;;;5011597;28;20046;-73
2022/07/04 12:50:27;;;;;;;3.08;0.98;;;22.10;95.40;;;;;;5016157;28;20037;-74
2022/07/04 12:52:52;;;;;;;5.97;0.93;;;22.10;95.30;;;;;;5017907;28;20053;-74
2022/07/04 12:55:18;;;;;;;2.88;0.90;;;22.00;95.30;;;;;;5016202;28;20046;-74
2022/07/04 12:57:44;;;;;;;2.35;0.70;;;22.00;95.00;;;;;;5010274;28;20116;-74
2022/07/04 13:00:12;;;;;;;2.08;0.90;;;21.90;95.20;;;;;;5019459;28;20044;-73
2022/07/04 13:02:38;;;;;;;2.90;0.82;;;21.90;96.00;;;;;;5015119;28;20044;-74
2022/07/04 13:05:04;;;;;;;5.18;0.98;;;22.00;96.30;;;;;;5013739;28;20042;-73
2022/07/04 13:07:29;;;;;;;4.03;1.20;;;22.10;96.30;;;;;;5017988;28;20045;-73